Terminal Aerodrome Forecast
Issued by NWS

Home | Current Version | Previous Version | Text Only | Print | Product List | Glossary On
Versions: 1 2 3 4 5 6 7 8 9 10 11 12 13 14
000
FTUS43 KSGF 210500
TAFBBG
TAF
KBBG 210520Z 2106/2206 16004KT P6SM SCT050 OVC120
     FM210700 16004KT 6SM -SHRA BR SCT035 OVC070
      TEMPO 2110/2114 3SM SHRA BR SCT020 OVC040
     FM211400 19007KT 5SM -SHRA VCTS SCT015 OVC030CB
     FM212200 27007KT P6SM -SHRA VCTS BKN040CB OVC120
     FM220100 31004KT P6SM BKN100=

USA.gov is the U.S. government's official web portal to all federal, state and local government web resources and services.